Latest Weather Observations for Pirlangimpi

IDD60801

Issued at 12:35 pm CST Thursday 31 July 2014 (issued every 30 minutes, with the page automatically refreshed every 10 minutes)

About weather observations | Map of weather stations | Latest weather observations for NT | Other Formats
Station Details ID: 014142 Name: PIRLANGIMPI AIRPORT Lat: -11.40 Lon: 130.42 Height: 18.3 m
Data from the previous 72 hours. | See also: Recent months at Pirlangimpi
Date/Time
CST
Temp
°C
App
Temp
°C
Dew
Point
Rel
Hum
%
Delta-T
°C
Wind Press
QNH
hPa
Press
MSL
hPa
Rain
since 9 am
mm
Dir
 
Spd
km/h
Gust
km/h
Spd
kts
Gust
kts
31/12:30pm 32.3 33.3 19.5 46 8.4 E 13 26 7 14 1013.7 1013.6 0.0
31/12:00pm 31.7 33.6 20.6 51 7.4 ENE 11 19 6 10 1014.3 1014.2 0.0
31/11:30am 30.3 31.5 20.0 54 6.8 E 13 20 7 11 1015.0 1014.9 0.0
31/11:00am 31.0 32.3 20.9 55 6.7 ENE 15 20 8 11 1015.3 - 0.0
31/10:30am 30.0 31.3 20.8 57 6.1 ENE 15 24 8 13 1015.5 1015.4 0.0
31/10:00am 28.4 29.7 20.9 64 5.0 ENE 15 22 8 12 1015.4 - 0.0
31/09:30am 27.6 29.5 21.4 69 4.1 E 13 19 7 10 1015.5 1015.4 0.0
31/09:00am 25.8 29.1 21.9 79 2.6 E 7 13 4 7 1015.3 1015.2 0.0
31/08:30am 24.3 27.8 21.8 86 1.7 ESE 6 13 3 7 1015.4 1015.3 0.0
31/08:00am 23.1 26.8 21.4 90 1.1 SE 4 7 2 4 1015.2 - 0.0
31/07:30am 22.5 25.6 21.0 91 1.0 SE 6 7 3 4 1015.2 1015.1 0.0
31/07:00am 22.2 25.5 20.7 91 1.0 SE 4 6 2 3 1015.0 - 0.0
31/06:30am 22.1 25.3 20.4 90 1.1 SE 4 6 2 3 1014.8 1014.7 0.0
31/06:00am 22.2 25.2 20.1 88 1.4 SE 4 6 2 3 1014.8 1014.7 0.0
31/05:30am 22.6 26.1 20.3 87 1.5 SSE 2 4 1 2 1014.7 1014.6 0.0
31/05:00am 22.9 26.0 20.2 85 1.7 SSE 4 6 2 3 1014.4 - 0.0
31/04:30am 23.3 26.5 20.6 85 1.8 S 4 6 2 3 1014.4 1014.3 0.0
31/04:00am 23.6 26.6 20.9 85 1.8 SSE 6 9 3 5 1014.4 - 0.0
31/03:30am 23.9 27.6 21.4 86 1.6 S 4 7 2 4 1014.3 1014.2 0.0
31/03:00am 23.7 26.8 21.0 85 1.8 S 6 7 3 4 1014.3 1014.2 0.0
31/02:30am 23.4 26.8 20.9 86 1.6 SSE 4 6 2 3 1014.5 1014.4 0.0
31/02:00am 23.3 26.8 20.4 84 1.9 ESE 2 6 1 3 1014.4 - 0.0
31/01:30am 23.6 26.2 20.5 83 2.0 ENE 7 13 4 7 1014.2 1014.1 0.0
31/01:00am 23.6 25.8 20.3 82 2.1 ENE 9 17 5 9 1014.2 - 0.0
31/12:30am 23.7 25.7 20.8 84 1.9 NE 11 19 6 10 1014.0 1013.9 0.0
31/12:00am 23.6 25.9 20.7 84 1.9 NE 9 15 5 8 1014.0 1013.9 0.0
 
Date/Time
CST
Temp
°C
App
Temp
°C
Dew
Point
Rel
Hum
%
Delta-T
°C
Wind Press
QNH
hPa
Press
MSL
hPa
Rain
since 9 am
mm
Dir
 
Spd
km/h
Gust
km/h
Spd
kts
Gust
kts
30/11:30pm 23.6 25.8 20.5 83 2.0 NE 9 15 5 8 1014.2 1014.1 0.0
30/11:00pm 23.4 26.2 20.5 84 1.9 NE 6 9 3 5 1014.3 - 0.0
30/10:30pm 23.5 26.6 20.2 82 2.1 NNE 4 9 2 5 1014.5 1014.4 0.0
30/10:00pm 23.7 26.8 20.2 81 2.3 NE 4 7 2 4 1014.7 - 0.0
30/09:30pm 24.0 27.1 20.3 80 2.4 NE 4 9 2 5 1014.7 1014.6 0.0
30/09:00pm 24.0 27.0 20.1 79 2.5 NE 4 7 2 4 1014.7 1014.6 0.0
30/08:30pm 24.5 27.5 20.0 76 2.9 NE 4 7 2 4 1014.6 1014.5 0.0
30/08:00pm 24.5 27.0 19.8 75 3.0 NE 6 13 3 7 1014.1 - 0.0
30/07:30pm 24.6 27.2 19.2 72 3.5 NE 4 6 2 3 1013.7 1013.6 0.0
30/07:00pm 25.4 27.9 19.1 68 4.0 NE 4 7 2 4 1013.4 - 0.0
30/06:30pm 26.7 28.3 19.1 63 4.9 NE 9 15 5 8 1013.0 1012.9 0.0
30/06:00pm 27.8 28.9 18.8 58 5.8 ENE 11 17 6 9 1012.9 1012.8 0.0
30/05:30pm 28.9 29.8 18.4 53 6.7 ENE 11 19 6 10 1012.5 1012.4 0.0
30/05:00pm 30.5 29.9 17.6 46 8.2 ENE 17 26 9 14 1012.4 - 0.0
30/04:30pm 31.9 31.5 16.2 38 9.8 ENE 13 22 7 12 1012.3 1012.2 0.0
30/04:00pm 33.0 32.1 15.9 35 10.7 ENE 15 22 8 12 1012.0 - 0.0
30/03:30pm 33.1 32.1 15.6 35 10.9 E 15 26 8 14 1012.0 1011.9 0.0
30/03:00pm 32.9 31.1 14.5 33 11.3 ENE 17 26 9 14 1012.0 1011.9 0.0
30/02:30pm 33.4 32.5 15.8 34 11.0 ENE 15 30 8 16 1012.4 1012.3 0.0
30/02:00pm 33.1 31.2 14.2 32 11.6 E 17 24 9 13 1012.8 - 0.0
30/01:30pm 32.9 30.6 14.0 32 11.5 E 19 28 10 15 1013.2 1013.1 0.0
30/01:00pm 33.2 30.2 13.8 31 11.8 E 22 35 12 19 1013.6 - 0.0
30/12:30pm 32.4 30.8 15.0 35 10.7 E 17 35 9 19 1014.0 1013.9 0.0
30/12:00pm 31.6 30.4 16.0 39 9.7 E 17 30 9 16 1014.6 1014.5 0.0
30/11:30am 30.4 28.7 15.7 41 9.1 E 19 30 10 16 1015.1 1015.0 0.0
30/11:00am 30.3 29.6 16.3 42 8.7 SE 15 22 8 12 1015.5 - 0.0
30/10:30am 29.0 28.0 17.5 49 7.3 E 19 30 10 16 1015.9 1015.8 0.0
30/10:00am 27.8 27.8 18.2 56 6.1 E 15 20 8 11 1016.0 - 0.0
30/09:30am 27.2 28.8 20.0 64 4.7 E 11 19 6 10 1016.1 1016.0 0.0
30/09:00am 25.4 27.5 20.2 73 3.4 E 9 15 5 8 1016.0 1015.9 0.0
30/08:30am 23.5 26.2 20.6 84 1.9 E 7 9 4 5 1015.8 1015.7 0.0
30/08:00am 21.9 25.0 20.2 90 1.1 ESE 4 6 2 3 1015.6 - 0.0
30/07:30am 21.2 24.0 19.7 91 1.0 E 4 6 2 3 1015.2 1015.1 0.0
30/07:00am 21.2 23.9 19.5 90 1.1 E 4 7 2 4 1015.1 - 0.0
30/06:30am 21.5 24.1 20.1 92 0.9 E 6 9 3 5 1014.9 1014.8 0.0
30/06:00am 21.2 24.1 19.8 92 0.9 E 4 6 2 3 1014.8 1014.7 0.0
30/05:30am 21.5 24.5 20.1 92 0.9 ESE 4 4 2 2 1014.7 1014.6 0.0
30/05:00am 21.6 25.0 20.1 91 1.0 SE 2 4 1 2 1014.7 - 0.0
30/04:30am 22.1 25.5 20.2 89 1.2 SSE 2 4 1 2 1014.5 1014.4 0.0
30/04:00am 22.8 26.0 20.5 87 1.5 SE 4 6 2 3 1014.4 - 0.0
30/03:30am 23.2 26.0 20.9 87 1.5 E 7 11 4 6 1014.3 1014.2 0.0
30/03:00am 23.1 25.5 20.8 87 1.5 ENE 9 13 5 7 1014.0 1013.9 0.0
30/02:30am 23.2 26.0 20.9 87 1.5 ENE 7 11 4 6 1014.1 1014.0 0.0
30/02:00am 23.5 26.1 21.2 87 1.5 ENE 9 13 5 7 1014.3 - 0.0
30/01:30am 23.7 26.2 21.0 85 1.8 ENE 9 13 5 7 1014.3 1014.2 0.0
30/01:00am 23.8 25.6 21.1 85 1.8 ENE 13 19 7 10 1014.6 - 0.0
30/12:30am 23.4 25.4 20.7 85 1.8 ENE 11 17 6 9 1014.7 1014.6 0.0
30/12:00am 23.2 25.4 20.5 85 1.8 ENE 9 15 5 8 1014.8 1014.7 0.0
 
Date/Time
CST
Temp
°C
App
Temp
°C
Dew
Point
Rel
Hum
%
Delta-T
°C
Wind Press
QNH
hPa
Press
MSL
hPa
Rain
since 9 am
mm
Dir
 
Spd
km/h
Gust
km/h
Spd
kts
Gust
kts
29/11:30pm 23.3 26.0 20.6 85 1.8 ENE 7 13 4 7 1014.8 1014.7 0.0
29/11:00pm 23.4 25.8 20.9 86 1.6 ENE 9 15 5 8 1014.9 - 0.0
29/10:30pm 23.4 26.1 20.7 85 1.8 ENE 7 11 4 6 1014.9 1014.8 0.0
29/10:00pm 23.6 26.3 20.7 84 1.9 NE 7 13 4 7 1015.0 - 0.0
29/09:30pm 23.5 26.4 20.6 84 1.9 NE 6 11 3 6 1015.1 1015.0 0.0
29/09:00pm 23.2 25.9 20.2 83 1.9 NE 6 9 3 5 1015.0 1014.9 0.0
29/08:30pm 23.5 26.5 20.0 81 2.3 NE 4 7 2 4 1014.7 1014.6 0.0
29/08:00pm 24.0 27.3 19.9 78 2.6 NE 2 4 1 2 1014.4 - 0.0
29/07:30pm 24.7 27.4 19.5 73 3.3 NE 4 7 2 4 1014.2 1014.1 0.0
29/07:00pm 25.5 28.3 19.6 70 3.8 NNE 4 9 2 5 1013.8 - 0.0
29/06:30pm 26.6 28.2 19.2 64 4.8 ENE 9 11 5 6 1013.5 1013.4 0.0
29/06:00pm 27.7 28.9 19.0 59 5.6 ENE 11 20 6 11 1013.1 1013.0 0.0
29/05:30pm 29.1 29.9 18.2 51 7.0 ENE 11 17 6 9 1012.9 1012.8 0.0
29/05:00pm 30.7 28.1 10.6 29 11.5 E 15 26 8 14 1012.5 - 0.0
29/04:30pm 31.4 27.4 8.4 24 12.8 E 19 28 10 15 1012.3 1012.2 0.0
29/04:00pm 32.5 29.6 11.1 27 12.5 ENE 17 30 9 16 1012.2 - 0.0
29/03:30pm 32.4 29.8 12.1 29 12.0 ESE 17 26 9 14 1012.1 1012.0 0.0
29/03:00pm 33.3 30.6 12.9 29 12.2 E 19 33 10 18 1012.4 1012.3 0.0
29/02:30pm 33.0 30.0 12.6 29 12.2 E 20 35 11 19 1012.6 1012.5 0.0
29/02:00pm 32.3 28.9 12.5 30 11.8 E 22 32 12 17 1012.9 - 0.0
29/01:30pm 32.1 29.9 14.3 34 10.9 ESE 19 30 10 16 1013.3 1013.2 0.0
29/01:00pm 32.3 30.7 14.9 35 10.7 E 17 24 9 13 1013.8 - 0.0
29/12:30pm 32.4 31.3 16.3 38 10.1 ESE 17 28 9 15 1014.3 1014.2 0.0
29/12:00pm 30.8 30.3 17.8 45 8.3 ESE 17 24 9 13 1014.7 1014.6 0.0
29/11:30am 30.1 29.1 17.9 48 7.8 E 20 30 11 16 1015.1 1015.0 0.0
29/11:00am 29.2 28.1 18.6 52 6.8 E 22 37 12 20 1015.4 - 0.0
29/10:30am 28.3 27.8 19.0 57 6.0 ESE 20 35 11 19 1015.9 1015.8 0.0
29/10:00am 27.5 28.3 19.8 63 5.0 ESE 15 30 8 16 1016.0 - 0.0
29/09:30am 26.4 28.1 20.9 72 3.6 E 13 22 7 12 1016.2 1016.1 0.0
29/09:00am 25.3 27.6 21.4 79 2.6 E 11 20 6 11 1016.2 1016.1 0.0
29/08:30am 23.6 26.8 21.3 87 1.5 ESE 6 9 3 5 1016.1 1016.0 0.0
29/08:00am 22.0 25.2 20.6 92 0.9 SE 4 6 2 3 1015.8 - 0.0
29/07:30am 21.0 23.8 19.7 92 0.8 SSE 4 4 2 2 1015.5 1015.4 0.0
29/07:00am 21.0 23.7 19.5 91 1.0 SE 4 6 2 3 1015.3 - 0.0
29/06:30am 21.4 24.2 19.7 90 1.1 SE 4 6 2 3 1015.1 1015.0 0.0
29/06:00am 21.6 24.5 19.9 90 1.1 SE 4 6 2 3 1015.0 1014.9 0.0
29/05:30am 21.6 24.6 20.1 91 1.0 SE 4 6 2 3 1014.9 1014.8 0.0
29/05:00am 21.7 24.7 20.0 90 1.1 SE 4 6 2 3 1014.9 - 0.0
29/04:30am 21.6 24.4 19.7 89 1.2 ESE 4 6 2 3 1014.7 1014.6 0.0
29/04:00am 22.0 24.6 20.1 89 1.2 SSE 6 7 3 4 1014.7 - 0.0
29/03:30am 22.5 25.7 20.4 88 1.4 SSE 4 7 2 4 1014.6 1014.5 0.0
29/03:00am 22.2 24.9 20.3 89 1.2 SE 6 7 3 4 1014.6 1014.5 0.0
29/02:30am 22.1 25.0 19.8 87 1.5 SE 4 6 2 3 1014.5 1014.4 0.0
29/02:00am 23.2 26.3 21.1 88 1.4 E 6 11 3 6 1014.3 - 0.0
29/01:30am 22.5 25.2 20.2 87 1.5 E 6 7 3 4 1014.4 1014.3 0.0
29/01:00am 22.6 26.2 20.5 88 1.4 E 2 6 1 3 1014.6 - 0.0
29/12:30am 22.5 26.3 20.2 87 1.5 CALM 0 0 0 0 1014.6 1014.5 0.0
29/12:00am 22.6 25.6 20.1 86 1.6 NE 4 6 2 3 1014.8 1014.7 0.0
 
Date/Time
CST
Temp
°C
App
Temp
°C
Dew
Point
Rel
Hum
%
Delta-T
°C
Wind Press
QNH
hPa
Press
MSL
hPa
Rain
since 9 am
mm
Dir
 
Spd
km/h
Gust
km/h
Spd
kts
Gust
kts
28/11:30pm 22.6 25.5 19.9 85 1.7 NNE 4 7 2 4 1015.0 1014.9 0.0
28/11:00pm 22.6 25.2 20.1 86 1.6 NE 6 7 3 4 1014.9 - 0.0
28/10:30pm 22.6 25.5 19.9 85 1.7 NE 4 6 2 3 1014.8 1014.7 0.0
28/10:00pm 22.8 25.8 20.1 85 1.7 NE 4 7 2 4 1014.9 - 0.0
28/09:30pm 22.9 25.8 19.9 83 1.9 NNE 4 7 2 4 1014.9 1014.8 0.0
28/09:00pm 23.2 25.7 19.8 81 2.2 NE 6 7 3 4 1014.7 1014.6 0.0
28/08:30pm 23.7 25.9 19.6 78 2.6 ENE 7 11 4 6 1014.4 1014.3 0.0
28/08:00pm 24.0 25.7 19.3 75 3.0 ENE 9 11 5 6 1014.3 - 0.0
28/07:30pm 24.5 26.3 18.2 68 4.0 ENE 6 9 3 5 1014.0 1013.9 0.0
28/07:00pm 25.0 26.5 16.7 60 5.1 ESE 4 7 2 4 1013.7 - 0.0
28/06:30pm 26.2 28.0 16.4 54 6.0 NNE 2 6 1 3 1013.4 1013.3 0.0
28/06:00pm 27.4 28.1 17.0 53 6.5 NE 9 19 5 10 1013.0 1012.9 0.0
28/05:30pm 29.9 30.2 16.0 43 8.6 ENE 9 17 5 9 1012.6 1012.5 0.0
28/05:00pm 31.8 32.5 15.7 37 10.0 NE 6 11 3 6 1012.1 - 0.0
28/04:30pm 31.8 32.7 16.1 38 9.8 SSE 6 9 3 5 1012.0 1011.9 0.0
28/04:00pm 30.0 31.6 16.8 45 8.3 W 4 9 2 5 1012.0 - 0.0
28/03:30pm 31.6 30.8 16.0 39 9.7 S 15 19 8 10 1012.1 1012.0 0.0
28/03:00pm 31.2 29.4 16.0 40 9.5 SSW 20 32 11 17 1012.2 1012.1 0.0
28/02:30pm 31.6 30.2 15.5 37 10.0 S 17 26 9 14 1012.7 1012.6 0.0
28/02:00pm 32.1 31.5 15.6 37 10.3 SSW 13 20 7 11 1013.2 - 0.0
28/01:30pm 32.8 31.4 13.4 30 11.7 S 13 26 7 14 1013.6 1013.5 0.0
28/01:00pm 32.9 32.3 14.5 33 11.3 SE 11 19 6 10 1014.2 - 0.0

Other Formats:

Comma delimited format used in spreadsheet applications
http://www.bom.gov.au/fwo/IDD60801/IDD60801.94119.axf

JavaScript Object Notation format (JSON) in row-major order
http://www.bom.gov.au/fwo/IDD60801/IDD60801.94119.json